Hlavní strana
METAR-TAF:

METAR-TAF

Letiště :

Moose Jaw, Saskatchewan, Kanada

zeměpisná šířka: 50-20N, zeměpisná délka: 105-33W, výška: 577 m

Aktuální stav počasí

Zpráva byla vytvořena před 7 hodinami a 46 minutami, v 23:23 UTC
Západoseverozápadní vítr 7 kt
Teplota 23°C
Vlhkost vzduchu 25%
Tlak 1022 hPa
Viditelnost: 16.1 km
Skoro jasno ve výšce 8200 ft
Oblačno až skoro zataženo ve výšce 28000 ft

METAR: CYMJ 192323Z 29007KT 10SM FEW082 BKN280 23/02 A3019 RMK CU1CI6 LAST OBS/NEXT 201000 UTC FU ALF SLP233

Čas: 01:09 (07:09 UTC)

Předpověď počasí

Zpráva byla vytvořena před 11 hodinami a 48 minutami, v 19:21 UTC
Předpověď platná od 19 v 19 UTC do 20 v 07 UTC
vítr z různých směrů 3 kt
Viditelnost: 10 km
Skoro jasno ve výšce 6000 ft
Změna
od 19 v 19 UTC do 19 v 21 UTC
Severoseverozápadní vítr 6 kt
Od 20 v 0400 UTC
vítr z různých směrů 3 kt
Viditelnost: 10 km
Polojasno ve výšce 22000 ft

TAF: CYMJ 191921Z 1919/2007 VRB03KT P6SM FEW060 BECMG 1919/1921 34006KT FM200400 VRB03KT P6SM SCT220 RMK NXT FCST BY 200000Z

Stav a předpovědi počasí z více než 4 000 letišť (zprávy METAR a TAF).

Červené a žluté tečky na mapě představují dostupné meteorologické stanice.

Když kurzor umístíte na tečku, zobrazí se název stanice.

Pak kliknutím zobrazíte stav a předpověď počasí.

Chcete-li změnit mapu, kliknutím na zelené tlačítko se znaménkem +mapu přiblížíte, kliknutím na zelené tlačítko se znaménkem – mapu oddálíte a kliknutím na zelené šipky přejdete na sousední mapy.


METAR-TAF: